createdAt,value
2022-08-08T00:00:55.783Z,10.55
2022-08-08T00:02:04.024Z,10.30
2022-08-08T00:04:16.037Z,9.77
2022-08-08T00:06:13.517Z,9.45
2022-08-08T00:07:56.315Z,9.55
2022-08-08T00:12:09.619Z,9.27
2022-08-08T00:14:15.038Z,9.27
2022-08-08T00:15:57.663Z,8.63
2022-08-08T00:18:01.861Z,10.45
2022-08-08T00:19:59.540Z,8.73
2022-08-08T00:21:39.650Z,9.43
2022-08-08T00:23:18.696Z,9.48
2022-08-08T00:24:54.621Z,9.38
2022-08-08T00:26:45.422Z,9.77
2022-08-08T00:28:35.817Z,9.35
2022-08-08T00:30:11.236Z,9.35
2022-08-08T00:32:28.230Z,9.48
2022-08-08T00:34:17.911Z,8.93
2022-08-08T00:35:50.319Z,9.15
2022-08-08T00:37:48.222Z,9.95
2022-08-08T00:41:10.512Z,9.45
2022-08-08T00:42:30.391Z,9.18
2022-08-08T00:44:25.279Z,8.80
2022-08-08T00:46:16.448Z,9.38
2022-08-08T00:48:30.254Z,9.52
2022-08-08T11:33:52.366Z,4.13
2022-08-08T11:37:15.082Z,3.97
2022-08-08T11:38:55.007Z,3.58
2022-08-08T11:44:02.050Z,7.75
2022-08-08T11:47:40.001Z,3.55
2022-08-08T11:49:19.769Z,3.90
2022-08-08T11:50:55.516Z,4.05
2022-08-08T11:52:31.677Z,3.28
2022-08-08T11:54:04.490Z,3.53
2022-08-08T11:55:50.579Z,3.30
2022-08-08T11:57:27.688Z,4.00
2022-08-08T11:59:10.797Z,3.60
2022-08-08T12:00:54.244Z,3.67
2022-08-08T12:02:32.719Z,3.60
2022-08-08T12:04:07.043Z,3.63
2022-08-08T12:05:39.205Z,3.63
2022-08-08T12:07:16.631Z,3.40
2022-08-08T12:08:49.898Z,3.40
2022-08-08T12:10:25.119Z,3.45
2022-08-08T12:11:57.468Z,3.50
2022-08-08T12:13:37.834Z,3.17
2022-08-08T12:15:39.966Z,3.30
2022-08-08T12:17:15.283Z,3.38
2022-08-08T12:18:49.164Z,3.50
2022-08-08T12:20:21.502Z,3.17
2022-08-08T12:22:07.969Z,2.88
2022-08-08T12:23:46.945Z,2.45
2022-08-08T12:25:33.883Z,3.00
2022-08-08T12:27:18.229Z,2.78
2022-08-08T12:28:55.509Z,2.50
2022-08-08T12:30:32.566Z,2.85
2022-08-08T12:32:20.113Z,2.97
2022-08-08T12:34:02.805Z,2.58
2022-08-08T12:35:52.735Z,3.00
2022-08-08T12:37:41.266Z,3.42
2022-08-08T12:40:00.976Z,3.13
2022-08-08T12:41:35.073Z,3.33
2022-08-08T12:43:20.647Z,3.17
2022-08-08T12:45:03.701Z,2.78
2022-08-08T12:46:59.548Z,3.20
2022-08-08T12:48:37.438Z,2.53
2022-08-08T12:50:11.656Z,3.00
2022-08-08T12:51:59.234Z,2.67
2022-08-08T12:53:42.293Z,2.67
2022-08-08T12:55:17.887Z,2.63
2022-08-08T12:57:17.210Z,2.20
2022-08-08T12:58:54.379Z,2.63
2022-08-08T13:00:34.144Z,2.05
2022-08-08T13:02:28.333Z,2.33
2022-08-08T13:04:01.466Z,2.78
2022-08-08T13:06:03.917Z,2.53
2022-08-08T13:08:04.127Z,2.25
2022-08-08T13:10:00.730Z,2.72
2022-08-08T13:12:27.981Z,2.35
2022-08-08T13:13:38.288Z,2.42
2022-08-08T13:15:16.612Z,2.10
2022-08-08T13:16:49.560Z,2.10
2022-08-08T13:18:27.446Z,2.33
2022-08-08T13:20:06.390Z,2.65
2022-08-08T13:21:53.480Z,2.22
2022-08-08T13:23:41.694Z,2.47
2022-08-08T13:25:22.416Z,2.50
2022-08-08T13:27:11.656Z,2.25
2022-08-08T13:28:45.778Z,2.40
2022-08-08T13:30:26.509Z,2.88
2022-08-08T13:32:05.584Z,2.30
2022-08-08T13:33:42.723Z,2.50
2022-08-08T13:35:24.797Z,2.45
2022-08-08T13:37:03.177Z,2.45
2022-08-08T13:38:43.248Z,2.35
2022-08-08T13:40:27.373Z,2.38
2022-08-08T13:42:01.616Z,2.60
2022-08-08T13:43:34.356Z,2.70
2022-08-08T13:45:10.788Z,2.38
2022-08-08T13:47:00.446Z,2.35
2022-08-08T13:48:44.269Z,2.47
2022-08-08T13:50:39.876Z,2.43
2022-08-08T13:52:35.752Z,2.40
2022-08-08T13:54:06.346Z,2.35
2022-08-08T13:55:41.028Z,2.80
2022-08-08T13:57:17.092Z,2.58
2022-08-08T13:58:57.914Z,2.70
2022-08-08T14:00:40.674Z,2.58
2022-08-08T14:02:33.212Z,2.80
2022-08-08T14:04:05.835Z,2.45
2022-08-08T14:06:00.463Z,2.45
2022-08-08T14:07:38.587Z,2.65
2022-08-08T14:09:25.015Z,2.50
2022-08-08T14:11:02.729Z,2.50
2022-08-08T14:12:37.575Z,2.40
2022-08-08T14:14:12.261Z,2.53
2022-08-08T14:16:02.643Z,2.80
2022-08-08T14:17:57.139Z,2.58
2022-08-08T14:19:54.241Z,2.33
2022-08-08T14:21:48.761Z,2.58
2022-08-08T14:24:04.716Z,2.80
2022-08-08T14:25:18.114Z,3.08
2022-08-08T14:26:55.207Z,2.42
2022-08-08T14:28:29.435Z,2.60
2022-08-08T14:30:18.660Z,2.58
2022-08-08T14:32:11.040Z,2.55
2022-08-08T14:33:45.505Z,2.80
2022-08-08T14:35:35.005Z,2.50
2022-08-08T14:37:08.508Z,2.30
2022-08-08T14:38:51.795Z,2.72
2022-08-08T14:40:26.931Z,2.47
2022-08-08T14:42:07.501Z,2.30
2022-08-08T14:44:10.498Z,2.47
2022-08-08T14:46:01.308Z,2.28
2022-08-08T14:47:53.587Z,2.60
2022-08-08T14:49:37.738Z,2.60
2022-08-08T14:51:47.245Z,2.38
2022-08-08T14:53:24.285Z,2.43
2022-08-08T14:54:58.062Z,2.67
2022-08-08T14:56:30.454Z,2.30
2022-08-08T14:58:11.719Z,2.47
2022-08-08T14:59:50.831Z,2.30
2022-08-08T15:01:40.521Z,2.22
2022-08-08T15:03:15.689Z,2.75
2022-08-08T15:04:48.909Z,2.58
2022-08-08T15:06:21.317Z,2.50
2022-08-08T15:08:00.792Z,2.40
2022-08-08T15:09:33.055Z,2.33
2022-08-08T15:11:11.680Z,2.70
2022-08-08T15:12:52.513Z,2.30
2022-08-08T15:14:26.583Z,2.55
2022-08-08T15:16:01.264Z,2.65
2022-08-08T15:17:36.604Z,2.83
2022-08-08T15:19:09.091Z,2.50
2022-08-08T15:20:41.897Z,2.50
2022-08-08T15:22:23.330Z,2.78
2022-08-08T15:23:55.991Z,2.53
2022-08-08T15:25:33.246Z,2.40
2022-08-08T15:27:11.987Z,2.70
2022-08-08T15:28:58.824Z,2.35
2022-08-08T15:30:32.350Z,2.70
2022-08-08T15:32:22.554Z,2.70
2022-08-08T15:33:58.971Z,2.65
2022-08-08T15:35:32.005Z,2.40
2022-08-08T15:37:13.120Z,3.05
2022-08-08T15:38:50.178Z,2.95
2022-08-08T15:40:23.226Z,3.22
2022-08-08T15:42:01.719Z,2.88
2022-08-08T15:43:36.132Z,3.03
2022-08-08T15:45:11.328Z,2.50
2022-08-08T15:46:45.203Z,2.47
2022-08-08T15:48:17.859Z,3.70
2022-08-08T15:49:53.437Z,2.50
2022-08-08T15:51:32.794Z,2.90
2022-08-08T15:53:06.465Z,3.05
2022-08-08T15:54:46.056Z,2.72
2022-08-08T15:56:20.437Z,3.53
2022-08-08T15:57:52.934Z,2.55
2022-08-08T16:00:06.745Z,2.58
2022-08-08T16:01:18.436Z,3.28
2022-08-08T16:02:53.507Z,3.13
2022-08-08T16:04:31.224Z,3.13
2022-08-08T16:06:04.028Z,2.42
2022-08-08T16:07:50.924Z,2.63
2022-08-08T16:13:11.480Z,2.60
2022-08-08T16:13:11.639Z,2.80
2022-08-08T16:13:31.916Z,2.40
2022-08-08T16:15:03.977Z,2.50
2022-08-08T16:16:40.987Z,2.15
2022-08-08T16:18:15.579Z,2.42
2022-08-08T16:20:00.064Z,2.60
2022-08-08T16:21:33.986Z,5.65
2022-08-08T16:23:06.151Z,3.88
2022-08-08T16:24:43.693Z,3.80
2022-08-08T16:26:19.571Z,3.35
2022-08-08T16:28:05.778Z,2.95
2022-08-08T16:30:08.810Z,2.53
2022-08-08T16:31:49.669Z,3.20
2022-08-08T16:33:35.997Z,2.78
2022-08-08T16:35:12.048Z,2.70
2022-08-08T16:36:49.322Z,2.83
2022-08-08T16:38:31.573Z,2.58
2022-08-08T16:40:04.909Z,3.40
2022-08-08T16:41:39.444Z,2.35
2022-08-08T16:43:14.903Z,2.65
2022-08-08T16:44:53.944Z,2.88
2022-08-08T16:46:44.787Z,2.90
2022-08-08T16:48:18.573Z,2.40
2022-08-08T16:49:50.902Z,2.70
2022-08-08T16:55:00.446Z,2.50
2022-08-08T16:55:04.474Z,3.22
2022-08-08T16:55:42.905Z,3.08
2022-08-08T16:57:22.835Z,2.50
2022-08-08T16:58:56.619Z,3.47
2022-08-08T17:00:29.583Z,3.35
2022-08-08T17:02:02.073Z,2.92
2022-08-08T17:03:59.824Z,3.15
2022-08-08T17:05:31.291Z,3.15
2022-08-08T17:07:17.738Z,3.83
2022-08-08T17:08:51.155Z,2.60
2022-08-08T17:10:23.498Z,2.90
2022-08-08T17:11:59.414Z,3.20
2022-08-08T17:13:49.749Z,2.90
2022-08-08T17:15:23.680Z,2.90
2022-08-08T17:16:58.306Z,2.83
2022-08-08T17:18:31.383Z,2.80
2022-08-08T17:20:05.256Z,2.67
2022-08-08T17:21:41.248Z,2.80
2022-08-08T17:23:17.632Z,2.70
2022-08-08T17:25:07.145Z,3.03
2022-08-08T17:26:39.740Z,3.05
2022-08-08T17:28:12.132Z,3.05
2022-08-08T17:29:56.488Z,3.53
2022-08-08T17:31:44.225Z,3.00
2022-08-08T17:34:53.489Z,3.20
2022-08-08T17:35:52.327Z,3.30
2022-08-08T17:37:06.637Z,3.97
2022-08-08T17:38:41.581Z,3.03
2022-08-08T17:41:48.475Z,3.80
2022-08-08T17:43:22.350Z,3.72
2022-08-08T17:44:55.298Z,3.40
2022-08-08T17:46:48.111Z,2.97
2022-08-08T17:48:31.011Z,2.60
2022-08-08T17:50:04.745Z,2.80
2022-08-08T17:51:38.112Z,2.90
2022-08-08T17:53:16.212Z,2.78
2022-08-08T17:54:56.166Z,3.53
2022-08-08T17:56:29.016Z,3.13
2022-08-08T17:58:03.573Z,3.60
2022-08-08T18:01:29.827Z,3.35
2022-08-08T18:03:13.334Z,3.83
2022-08-08T18:04:50.578Z,3.58
2022-08-08T18:06:24.021Z,3.00
2022-08-08T18:08:04.588Z,3.00
2022-08-08T18:09:38.809Z,3.42
2022-08-08T18:11:15.253Z,3.05
2022-08-08T18:12:48.086Z,3.60
2022-08-08T18:14:22.128Z,2.80
2022-08-08T18:16:00.090Z,3.03
2022-08-08T18:18:09.932Z,3.22
2022-08-08T18:19:30.568Z,3.03
2022-08-08T18:21:10.696Z,3.15
2022-08-08T18:22:55.767Z,3.85
2022-08-08T18:24:30.185Z,3.38
2022-08-08T18:26:04.058Z,3.17
2022-08-08T18:27:38.162Z,3.63
2022-08-08T18:29:15.324Z,3.30
2022-08-08T18:30:48.000Z,3.55
2022-08-08T18:32:20.967Z,3.75
2022-08-08T18:34:12.478Z,3.60
2022-08-08T18:35:48.499Z,4.28
2022-08-08T18:37:34.193Z,3.55
2022-08-08T18:39:07.166Z,3.60
2022-08-08T18:40:39.450Z,4.05
2022-08-08T18:42:16.524Z,3.55
2022-08-08T18:43:50.329Z,3.45
2022-08-08T18:46:00.285Z,3.58
2022-08-08T18:48:48.969Z,3.97
2022-08-08T18:51:57.289Z,4.10
2022-08-08T18:54:02.695Z,3.90
2022-08-08T18:55:23.368Z,3.90
2022-08-08T18:57:02.245Z,3.88
2022-08-08T18:58:37.536Z,3.85
2022-08-08T19:00:16.890Z,4.00
2022-08-08T19:02:17.938Z,3.90
2022-08-08T19:04:09.962Z,3.42
2022-08-08T19:05:45.239Z,4.10
2022-08-08T19:07:23.537Z,3.83
2022-08-08T19:08:56.088Z,4.20
2022-08-08T19:10:29.526Z,4.28
2022-08-08T19:12:02.565Z,3.92
2022-08-08T19:13:53.173Z,4.13
2022-08-08T19:15:33.824Z,4.00
2022-08-08T19:17:06.569Z,3.97
2022-08-08T19:18:51.801Z,3.88
2022-08-08T19:20:29.872Z,3.60
2022-08-08T19:22:04.689Z,4.40
2022-08-08T19:23:37.003Z,3.78
2022-08-08T19:26:01.341Z,3.40
2022-08-08T19:27:06.248Z,3.67
2022-08-08T19:28:39.221Z,3.80
2022-08-08T19:30:24.615Z,3.97
2022-08-08T19:31:58.726Z,3.92
2022-08-08T19:33:51.819Z,3.90
2022-08-08T19:35:45.169Z,4.68
2022-08-08T19:37:18.165Z,3.85
2022-08-08T19:39:10.244Z,4.05
2022-08-08T19:40:42.888Z,3.97
2022-08-08T19:42:16.649Z,4.63
2022-08-08T19:44:00.869Z,4.50
2022-08-08T19:45:59.957Z,4.03
2022-08-08T19:47:34.068Z,3.83
2022-08-08T19:49:07.605Z,3.88
2022-08-08T19:50:41.974Z,4.20
2022-08-08T19:52:14.294Z,4.00
2022-08-08T19:54:06.624Z,4.05
2022-08-08T19:55:39.813Z,3.80
2022-08-08T19:57:16.619Z,4.00
2022-08-08T19:58:51.882Z,4.28
2022-08-08T20:00:30.118Z,4.28
2022-08-08T20:02:04.451Z,3.90
2022-08-08T20:06:13.433Z,3.97
2022-08-08T20:08:38.813Z,4.43
2022-08-08T20:09:15.866Z,4.57
2022-08-08T20:10:49.461Z,4.55
2022-08-08T20:12:32.634Z,4.60
2022-08-08T20:14:32.425Z,4.45
2022-08-08T20:16:01.222Z,5.38
2022-08-08T20:17:33.845Z,4.28
2022-08-08T20:19:09.920Z,4.75
2022-08-08T20:20:45.265Z,4.13
2022-08-08T20:22:26.580Z,4.13
2022-08-08T20:24:03.330Z,4.68
2022-08-08T20:25:37.608Z,4.57
2022-08-08T20:27:09.920Z,4.67
2022-08-08T20:28:52.096Z,4.50
2022-08-08T20:30:56.328Z,4.75
2022-08-08T20:32:22.223Z,4.18
2022-08-08T20:34:27.703Z,5.10
2022-08-08T20:35:56.784Z,5.13
2022-08-08T20:37:52.769Z,4.57
2022-08-08T20:39:24.168Z,4.50
2022-08-08T20:40:59.845Z,4.38
2022-08-08T20:42:32.831Z,4.93
2022-08-08T20:44:06.056Z,4.47
2022-08-08T20:45:57.687Z,4.63
2022-08-08T20:47:36.375Z,4.68
2022-08-08T20:49:11.271Z,5.15
2022-08-08T20:50:45.191Z,4.93
2022-08-08T20:52:17.268Z,4.88
2022-08-08T20:53:59.476Z,5.22
2022-08-08T20:55:35.808Z,4.65
2022-08-08T20:57:18.768Z,4.70
2022-08-08T20:58:51.421Z,4.82
2022-08-08T21:00:25.008Z,5.18
2022-08-08T21:02:06.205Z,5.05
2022-08-08T21:03:59.633Z,4.90
2022-08-08T21:05:32.606Z,5.05
2022-08-08T21:07:47.624Z,4.75
2022-08-08T21:09:17.423Z,4.50
2022-08-08T21:10:50.724Z,4.60
2022-08-08T21:12:32.166Z,4.80
2022-08-08T21:14:07.485Z,4.70
2022-08-08T21:16:04.053Z,4.90
2022-08-08T21:17:33.141Z,4.70
2022-08-08T21:19:05.666Z,4.55
2022-08-08T21:20:43.210Z,4.70
2022-08-08T21:22:22.840Z,4.93
2022-08-08T21:24:03.717Z,4.88
2022-08-08T21:25:39.617Z,5.03
2022-08-08T21:27:15.567Z,4.70
2022-08-08T21:29:03.913Z,5.00
2022-08-08T21:30:39.879Z,4.68
2022-08-08T21:32:14.240Z,4.93
2022-08-08T21:33:52.578Z,4.68
2022-08-08T21:36:14.975Z,4.95
2022-08-08T21:37:19.204Z,4.78
2022-08-08T21:38:51.930Z,5.13
2022-08-08T21:40:31.011Z,5.20
2022-08-08T21:42:04.141Z,4.97
2022-08-08T21:45:44.771Z,4.82
2022-08-08T21:48:05.670Z,5.25
2022-08-08T21:48:55.508Z,5.18
2022-08-08T21:50:28.063Z,5.00
2022-08-08T21:54:30.707Z,5.45
2022-08-08T21:54:34.916Z,5.32
2022-08-08T21:56:18.216Z,5.05
2022-08-08T21:57:42.086Z,5.03
2022-08-08T21:59:26.413Z,4.65
2022-08-08T22:01:27.862Z,4.95
2022-08-08T22:03:00.392Z,4.72
2022-08-08T22:04:33.845Z,4.80
2022-08-08T22:06:06.097Z,4.80
2022-08-08T22:07:48.532Z,5.25
2022-08-08T22:09:26.860Z,4.63
2022-08-08T22:11:48.216Z,5.05
2022-08-08T22:13:18.505Z,5.35
2022-08-08T22:14:53.143Z,5.07
2022-08-08T22:16:25.312Z,5.22
2022-08-08T22:17:58.198Z,4.77
2022-08-08T22:20:11.087Z,5.13
2022-08-08T22:21:23.636Z,5.32
2022-08-08T22:23:07.852Z,4.65
2022-08-08T22:24:40.183Z,5.30
2022-08-08T22:28:14.974Z,5.72
2022-08-08T22:29:58.987Z,5.07
2022-08-08T22:31:35.455Z,5.30
2022-08-08T22:34:10.414Z,4.90
2022-08-08T22:35:03.573Z,5.20
2022-08-08T22:36:35.963Z,5.10
2022-08-08T22:38:08.181Z,5.50
2022-08-08T22:39:51.301Z,5.28
2022-08-08T22:41:32.464Z,5.47
2022-08-08T22:43:04.685Z,5.40
2022-08-08T22:44:38.117Z,5.03
2022-08-08T22:46:10.755Z,4.88
2022-08-08T22:47:48.758Z,5.82
2022-08-08T22:49:23.824Z,5.40
2022-08-08T22:50:56.384Z,5.55
2022-08-08T22:52:33.348Z,5.13
2022-08-08T22:54:31.342Z,5.30
2022-08-08T22:56:01.644Z,5.50
2022-08-08T22:57:43.705Z,5.55
2022-08-08T22:59:21.243Z,5.57
2022-08-08T23:00:54.686Z,5.28
2022-08-08T23:02:29.283Z,4.85
2022-08-08T23:04:01.405Z,5.75
2022-08-08T23:05:38.558Z,5.38
2022-08-08T23:07:22.123Z,5.22
2022-08-08T23:09:14.104Z,6.03
2022-08-08T23:10:53.092Z,5.60
2022-08-08T23:12:40.335Z,5.30
2022-08-08T23:14:13.087Z,5.50
2022-08-08T23:16:39.154Z,5.38
2022-08-08T23:17:53.884Z,5.43
2022-08-08T23:19:30.913Z,5.47
2022-08-08T23:21:05.676Z,5.50
2022-08-08T23:22:39.965Z,5.75
2022-08-08T23:24:12.067Z,5.55
2022-08-08T23:25:48.118Z,5.28
2022-08-08T23:27:38.970Z,5.40
2022-08-08T23:29:14.501Z,5.20
2022-08-08T23:30:48.410Z,5.28
2022-08-08T23:32:20.398Z,5.35
2022-08-08T23:34:17.441Z,5.70
2022-08-08T23:36:07.289Z,6.03
2022-08-08T23:38:02.924Z,5.50
2022-08-08T23:39:41.866Z,5.95
2022-08-08T23:41:25.115Z,5.70
2022-08-08T23:43:04.471Z,5.55
2022-08-08T23:44:38.585Z,5.53
2022-08-08T23:49:03.737Z,5.40
2022-08-08T23:49:06.161Z,5.63
2022-08-08T23:50:03.259Z,5.70
2022-08-08T23:51:41.863Z,6.32
2022-08-08T23:54:05.092Z,5.75
2022-08-08T23:55:22.682Z,5.45
2022-08-08T23:56:55.099Z,5.63
2022-08-08T23:58:37.164Z,6.10
